Ana Sayfa
METAR-TAF:

METAR-TAF

Havaalanları :

Wood County Airport

Mineola / Quitman, Teksas, Amerika Birleşik Devletleri

Enlem: 32-44-31N, Boylam: 095-29-47W, yükseklik: 132 m

Güncel hava durumu gözlemi

Rapor saat 20:55 UTC de 18 dakika önce yapıldı.
Rüzgar güneydoğudan 5 kt
Sıcaklık 11°C
Nem 100%
Basınç 1016 hPa
Görüş mesafesi: 16.1 km
400 ft yükseklikte çok bulutlu
hafif yağmur

METAR: KJDD 232055Z AUTO 14005KT 10SM -RA OVC004 11/11 A3001 RMK AO2

Saat: 15:13 (21:13 UTC)


TAF: eksik

4.000'den fazla havaalanı için hava durumu gözlemleri ve tahminleri (METAR ve TAF raporları).

Kullanılabilir istasyonlar harita üzerinde sarı ve kırmızı noktalarla gösterilir.

İstasyonun adını görmek için fareyi noktanın üzerinde gezdirin.

Sonrasında hava gözlem ve tahminlerini görmek için tıklayın.

Haritayı değiştirmek için: yaklaştırmak için siyah artı işaretli yeşil düğmeye ve uzaklaştırmak için de eksi işaretli düğmeye hızla tıklayın; bitişik haritalar için yeşil okları kullanın.


METAR-TAF: